Stephen L. — WDE7070 — position and weather

sailwx.info

Track history (hours):
 
Tides and Currents Weather Stations Pressure Air Temp Water Temp Dewpoint Dewpoint Depression Visibility Wind Speed Wind Dir Waves Ship Positions

Stephen L.

Owner: TRIPLE S MARINE, LLC, MORGAN CITY, LA. More information available from US FCC via Universal Licensing System and Coast Guard Vessel Documentation Center.

Last reported at 2015-Dec-30 22:06 UTC. Time now 2016-Jun-26 19:07 UTC.
Position N 29°34' W 090°33'.
Warning: this ship's position is months out of date.

Length 20 m.

Type: Ship. MMSI: 367388580.

Date/timePositionNaut miles runAvg speedWind from/ knotsBaromVisibWave heightAir tempDewpointWater temp
2015-Dec-30 22:06N 29°34' W 090°33'3 5.5
2015-Dec-30 21:33N 29°35' W 090°37'3 2.8
2015-Dec-30 20:33N 29°36' W 090°40'0 0.0
2015-Dec-30 19:32N 29°36' W 090°40'0 0.0
2015-Dec-30 18:33N 29°36' W 090°40'0 0.0
2015-Dec-30 17:33N 29°36' W 090°40'0 0.0
2015-Dec-30 16:27N 29°36' W 090°40'0 0.0
2015-Dec-30 15:31N 29°36' W 090°40'0 0.0
2015-Dec-30 14:33N 29°36' W 090°40'0 0.0
2015-Dec-30 13:33N 29°36' W 090°40'0 0.0
2015-Dec-30 12:33N 29°36' W 090°40'0 0.0
2015-Dec-30 11:33N 29°36' W 090°40'0 0.0
2015-Dec-30 10:33N 29°36' W 090°40'0 0.0
2015-Dec-30 09:33N 29°36' W 090°40'0 0.0
2015-Dec-30 08:33N 29°36' W 090°40'0 0.0
2015-Dec-30 07:33N 29°36' W 090°40'0 0.0
2015-Dec-30 06:33N 29°36' W 090°40'0 0.0
2015-Dec-30 05:33N 29°36' W 090°40'0 0.0
2015-Dec-30 04:33N 29°36' W 090°40'0 0.0
2015-Dec-30 03:33N 29°36' W 090°40'0 0.0
2015-Dec-30 02:33N 29°36' W 090°40'0 0.0
2015-Dec-30 01:33N 29°36' W 090°40'0 0.0
2015-Dec-30 00:33N 29°36' W 090°40'0 0.0
2015-Dec-29 23:33N 29°36' W 090°40'0 0.0
2015-Dec-29 22:32N 29°36' W 090°40'0 0.0
2015-Dec-29 21:33N 29°36' W 090°40'1 0.6
2015-Dec-29 20:33N 29°36' W 090°40'0 0.0
2015-Dec-29 19:33N 29°36' W 090°40'0 0.0
2015-Dec-29 18:33N 29°36' W 090°40'0 0.0
2015-Dec-29 17:33N 29°36' W 090°40'0 0.0
2015-Dec-29 16:33N 29°36' W 090°40'0 0.0
2015-Dec-29 15:33N 29°36' W 090°40'0 0.2
2015-Dec-29 13:32N 29°36' W 090°40'0 0.2
2015-Dec-29 12:33N 29°36' W 090°40'0 0.0
2015-Dec-29 11:33N 29°36' W 090°40'0 0.0
2015-Dec-29 10:33N 29°36' W 090°40'0 0.0
2015-Dec-29 09:33N 29°36' W 090°40'0 0.0
2015-Dec-29 08:33N 29°36' W 090°40'0 0.0
2015-Dec-29 07:33N 29°36' W 090°40'0 0.0
2015-Dec-29 06:33N 29°36' W 090°40'0 0.0
2015-Dec-29 05:33N 29°36' W 090°40'0 0.0
2015-Dec-29 04:33N 29°36' W 090°40'4 3.7
2015-Dec-29 03:33N 29°35' W 090°36'  
2015-Dec-21 03:10N 29°34' W 090°34'3 5.4
2015-Dec-21 02:33N 29°35' W 090°38'4 4.2
2015-Dec-21 01:33N 29°36' W 090°43'5 4.5
2015-Dec-21 00:32N 29°32' W 090°46'  
Track history (hours):
 
Tides and Currents Weather Stations Pressure Air Temp Water Temp Dewpoint Dewpoint Depression Visibility Wind Speed Wind Dir Waves Ship Positions

Stephen L.

Owner: TRIPLE S MARINE, LLC, MORGAN CITY, LA. More information available from US FCC via Universal Licensing System and Coast Guard Vessel Documentation Center.

Last reported at 2015-Dec-30 22:06 UTC. Time now 2016-Jun-26 19:07 UTC.
Position N 29°34' W 090°33'.
Warning: this ship's position is months out of date.

Length 20 m.

Type: Ship. MMSI: 367388580.

Date/timePositionNaut miles runAvg speedWind from/ knotsBaromVisibWave heightAir tempDewpointWater temp
2015-Dec-30 22:06N 29°34' W 090°33'3 5.5
2015-Dec-30 21:33N 29°35' W 090°37'3 2.8
2015-Dec-30 20:33N 29°36' W 090°40'0 0.0
2015-Dec-30 19:32N 29°36' W 090°40'0 0.0
2015-Dec-30 18:33N 29°36' W 090°40'0 0.0
2015-Dec-30 17:33N 29°36' W 090°40'0 0.0
2015-Dec-30 16:27N 29°36' W 090°40'0 0.0
2015-Dec-30 15:31N 29°36' W 090°40'0 0.0
2015-Dec-30 14:33N 29°36' W 090°40'0 0.0
2015-Dec-30 13:33N 29°36' W 090°40'0 0.0
2015-Dec-30 12:33N 29°36' W 090°40'0 0.0
2015-Dec-30 11:33N 29°36' W 090°40'0 0.0
2015-Dec-30 10:33N 29°36' W 090°40'0 0.0
2015-Dec-30 09:33N 29°36' W 090°40'0 0.0
2015-Dec-30 08:33N 29°36' W 090°40'0 0.0
2015-Dec-30 07:33N 29°36' W 090°40'0 0.0
2015-Dec-30 06:33N 29°36' W 090°40'0 0.0
2015-Dec-30 05:33N 29°36' W 090°40'0 0.0
2015-Dec-30 04:33N 29°36' W 090°40'0 0.0
2015-Dec-30 03:33N 29°36' W 090°40'0 0.0
2015-Dec-30 02:33N 29°36' W 090°40'0 0.0
2015-Dec-30 01:33N 29°36' W 090°40'0 0.0
2015-Dec-30 00:33N 29°36' W 090°40'0 0.0
2015-Dec-29 23:33N 29°36' W 090°40'0 0.0
2015-Dec-29 22:32N 29°36' W 090°40'0 0.0
2015-Dec-29 21:33N 29°36' W 090°40'1 0.6
2015-Dec-29 20:33N 29°36' W 090°40'0 0.0
2015-Dec-29 19:33N 29°36' W 090°40'0 0.0
2015-Dec-29 18:33N 29°36' W 090°40'0 0.0
2015-Dec-29 17:33N 29°36' W 090°40'0 0.0
2015-Dec-29 16:33N 29°36' W 090°40'0 0.0
2015-Dec-29 15:33N 29°36' W 090°40'0 0.2
2015-Dec-29 13:32N 29°36' W 090°40'0 0.2
2015-Dec-29 12:33N 29°36' W 090°40'0 0.0
2015-Dec-29 11:33N 29°36' W 090°40'0 0.0
2015-Dec-29 10:33N 29°36' W 090°40'0 0.0
2015-Dec-29 09:33N 29°36' W 090°40'0 0.0
2015-Dec-29 08:33N 29°36' W 090°40'0 0.0
2015-Dec-29 07:33N 29°36' W 090°40'0 0.0
2015-Dec-29 06:33N 29°36' W 090°40'0 0.0
2015-Dec-29 05:33N 29°36' W 090°40'0 0.0
2015-Dec-29 04:33N 29°36' W 090°40'4 3.7
2015-Dec-29 03:33N 29°35' W 090°36'  
2015-Dec-21 03:10N 29°34' W 090°34'3 5.4
2015-Dec-21 02:33N 29°35' W 090°38'4 4.2
2015-Dec-21 01:33N 29°36' W 090°43'5 4.5
2015-Dec-21 00:32N 29°32' W 090°46'  

Dump ship's entire track history